sensor_id;sensor_type;location;lat;lon;timestamp;pressure;altitude;pressure_sealevel;temperature;humidity
23253;BME280;11795;47.054;15.408;2023-05-24T00:00:00;97220;;;17.1;93.3
23253;BME280;11795;47.054;15.408;2023-05-24T00:02:02;97220;;;17.2;93.6
23253;BME280;11795;47.054;15.408;2023-05-24T00:04:00;97220;;;17.1;93.1
23253;BME280;11795;47.054;15.408;2023-05-24T00:06:00;97210;;;17.0;93.6
23253;BME280;11795;47.054;15.408;2023-05-24T00:08:00;97210;;;17.2;92.9
23253;BME280;11795;47.054;15.408;2023-05-24T00:10:00;97210;;;17.0;93.5
23253;BME280;11795;47.054;15.408;2023-05-24T00:12:00;97210;;;17.1;93.7
23253;BME280;11795;47.054;15.408;2023-05-24T00:14:00;97210;;;17.1;93.3
23253;BME280;11795;47.054;15.408;2023-05-24T00:16:00;97210;;;16.9;95.1
23253;BME280;11795;47.054;15.408;2023-05-24T00:18:00;97210;;;17.0;95.1
23253;BME280;11795;47.054;15.408;2023-05-24T00:20:00;97200;;;16.9;95.3
23253;BME280;11795;47.054;15.408;2023-05-24T00:22:00;97210;;;17.0;95.3
23253;BME280;11795;47.054;15.408;2023-05-24T00:24:00;97210;;;17.0;94.9
23253;BME280;11795;47.054;15.408;2023-05-24T00:26:00;97200;;;16.9;95.6
23253;BME280;11795;47.054;15.408;2023-05-24T00:28:00;97210;;;17.1;94.8
23253;BME280;11795;47.054;15.408;2023-05-24T00:30:00;97210;;;16.9;95.3
23253;BME280;11795;47.054;15.408;2023-05-24T00:32:00;97210;;;17.0;95.4
23253;BME280;11795;47.054;15.408;2023-05-24T00:34:00;97220;;;17.0;95.1
23253;BME280;11795;47.054;15.408;2023-05-24T00:36:00;97210;;;16.9;95.7
23253;BME280;11795;47.054;15.408;2023-05-24T00:38:00;97210;;;17.1;95.1
23253;BME280;11795;47.054;15.408;2023-05-24T00:40:00;97210;;;17.0;95.1
23253;BME280;11795;47.054;15.408;2023-05-24T00:42:01;97220;;;17.0;95.5
23253;BME280;11795;47.054;15.408;2023-05-24T00:44:00;97220;;;17.0;94.9
23253;BME280;11795;47.054;15.408;2023-05-24T00:46:13;97220;;;16.9;95.7
23253;BME280;11795;47.054;15.408;2023-05-24T00:48:00;97220;;;17.1;95.1
23253;BME280;11795;47.054;15.408;2023-05-24T00:50:00;97220;;;16.8;97.3
23253;BME280;11795;47.054;15.408;2023-05-24T00:52:00;97220;;;16.8;98.2
23253;BME280;11795;47.054;15.408;2023-05-24T00:54:01;97210;;;16.8;97.8
23253;BME280;11795;47.054;15.408;2023-05-24T00:56:01;97210;;;16.8;98.0
23253;BME280;11795;47.054;15.408;2023-05-24T00:58:01;97210;;;17.0;97.3
23253;BME280;11795;47.054;15.408;2023-05-24T01:00:02;97210;;;16.9;97.4
23253;BME280;11795;47.054;15.408;2023-05-24T01:02:00;97210;;;16.9;97.6
23253;BME280;11795;47.054;15.408;2023-05-24T01:04:00;97220;;;17.0;96.8
23253;BME280;11795;47.054;15.408;2023-05-24T01:06:02;97210;;;16.9;97.4
23253;BME280;11795;47.054;15.408;2023-05-24T01:08:08;97220;;;17.1;96.6
23253;BME280;11795;47.054;15.408;2023-05-24T01:10:04;97210;;;17.0;96.9
23253;BME280;11795;47.054;15.408;2023-05-24T01:12:10;97220;;;16.9;97.1
23253;BME280;11795;47.054;15.408;2023-05-24T01:14:09;97220;;;17.0;96.4
23253;BME280;11795;47.054;15.408;2023-05-24T01:16:04;97220;;;16.9;97.1
23253;BME280;11795;47.054;15.408;2023-05-24T01:18:04;97220;;;17.1;96.6
23253;BME280;11795;47.054;15.408;2023-05-24T01:20:02;97220;;;17.0;96.6
23253;BME280;11795;47.054;15.408;2023-05-24T01:22:11;97230;;;16.9;97.0
23253;BME280;11795;47.054;15.408;2023-05-24T01:24:11;97230;;;17.0;96.2
23253;BME280;11795;47.054;15.408;2023-05-24T01:26:13;97230;;;16.9;96.7
23253;BME280;11795;47.054;15.408;2023-05-24T01:28:00;97230;;;17.0;96.1
23253;BME280;11795;47.054;15.408;2023-05-24T01:30:02;97230;;;16.9;96.3
23253;BME280;11795;47.054;15.408;2023-05-24T01:32:01;97230;;;16.8;96.7
23253;BME280;11795;47.054;15.408;2023-05-24T01:34:00;97230;;;16.9;95.8
23253;BME280;11795;47.054;15.408;2023-05-24T01:36:00;97230;;;16.8;96.4
23253;BME280;11795;47.054;15.408;2023-05-24T01:38:00;97240;;;17.0;95.6
23253;BME280;11795;47.054;15.408;2023-05-24T01:40:01;97240;;;16.9;95.8
23253;BME280;11795;47.054;15.408;2023-05-24T01:42:08;97240;;;16.8;96.2
23253;BME280;11795;47.054;15.408;2023-05-24T01:44:07;97240;;;16.9;95.2
23253;BME280;11795;47.054;15.408;2023-05-24T01:46:07;97240;;;16.8;95.8
23253;BME280;11795;47.054;15.408;2023-05-24T01:48:04;97230;;;17.0;95.1
23253;BME280;11795;47.054;15.408;2023-05-24T01:50:06;97230;;;16.8;95.4
23253;BME280;11795;47.054;15.408;2023-05-24T01:52:04;97240;;;16.8;95.8
23253;BME280;11795;47.054;15.408;2023-05-24T01:54:02;97240;;;16.9;94.9
23253;BME280;11795;47.054;15.408;2023-05-24T01:56:02;97240;;;16.7;95.7
23253;BME280;11795;47.054;15.408;2023-05-24T01:58:02;97240;;;16.9;95.2
23253;BME280;11795;47.054;15.408;2023-05-24T02:00:02;97240;;;16.8;95.4
23253;BME280;11795;47.054;15.408;2023-05-24T02:02:01;97230;;;16.7;96.0
23253;BME280;11795;47.054;15.408;2023-05-24T02:04:01;97230;;;16.8;95.1
23253;BME280;11795;47.054;15.408;2023-05-24T02:06:01;97230;;;16.7;95.7
23253;BME280;11795;47.054;15.408;2023-05-24T02:08:00;97230;;;16.9;95.3
23253;BME280;11795;47.054;15.408;2023-05-24T02:10:00;97240;;;16.7;95.5
23253;BME280;11795;47.054;15.408;2023-05-24T02:12:01;97240;;;16.7;95.9
23253;BME280;11795;47.054;15.408;2023-05-24T02:14:00;97240;;;16.8;95.2
23253;BME280;11795;47.054;15.408;2023-05-24T02:16:00;97240;;;16.8;95.5
23253;BME280;11795;47.054;15.408;2023-05-24T02:18:01;97240;;;16.9;94.9
23253;BME280;11795;47.054;15.408;2023-05-24T02:20:00;97240;;;16.8;95.0
23253;BME280;11795;47.054;15.408;2023-05-24T02:22:00;97250;;;16.7;95.5
23253;BME280;11795;47.054;15.408;2023-05-24T02:24:00;97250;;;16.8;94.8
23253;BME280;11795;47.054;15.408;2023-05-24T02:26:00;97250;;;16.7;95.5
23253;BME280;11795;47.054;15.408;2023-05-24T02:28:01;97250;;;16.9;95.1
23253;BME280;11795;47.054;15.408;2023-05-24T02:30:00;97250;;;16.8;95.0
23253;BME280;11795;47.054;15.408;2023-05-24T02:32:00;97250;;;16.7;95.7
23253;BME280;11795;47.054;15.408;2023-05-24T02:34:00;97250;;;16.8;94.9
23253;BME280;11795;47.054;15.408;2023-05-24T02:36:00;97250;;;16.7;95.4
23253;BME280;11795;47.054;15.408;2023-05-24T02:38:02;97250;;;16.8;95.3
23253;BME280;11795;47.054;15.408;2023-05-24T02:40:00;97240;;;16.7;95.4
23253;BME280;11795;47.054;15.408;2023-05-24T02:42:00;97240;;;16.6;95.9
23253;BME280;11795;47.054;15.408;2023-05-24T02:44:00;97240;;;16.8;95.1
23253;BME280;11795;47.054;15.408;2023-05-24T02:46:00;97240;;;16.6;95.7
23253;BME280;11795;47.054;15.408;2023-05-24T02:48:00;97240;;;16.9;95.3
23253;BME280;11795;47.054;15.408;2023-05-24T02:50:00;97240;;;16.7;95.3
23253;BME280;11795;47.054;15.408;2023-05-24T02:52:00;97230;;;16.6;95.9
23253;BME280;11795;47.054;15.408;2023-05-24T02:54:01;97240;;;16.8;95.3
23253;BME280;11795;47.054;15.408;2023-05-24T02:56:00;97250;;;16.7;95.8
23253;BME280;11795;47.054;15.408;2023-05-24T02:58:00;97250;;;16.8;95.4
23253;BME280;11795;47.054;15.408;2023-05-24T03:00:00;97250;;;16.7;95.3
23253;BME280;11795;47.054;15.408;2023-05-24T03:02:00;97250;;;16.7;95.7
23253;BME280;11795;47.054;15.408;2023-05-24T03:04:00;97250;;;16.8;95.1
23253;BME280;11795;47.054;15.408;2023-05-24T03:06:00;97260;;;16.7;95.6
23253;BME280;11795;47.054;15.408;2023-05-24T03:08:00;97260;;;16.8;95.4
23253;BME280;11795;47.054;15.408;2023-05-24T03:10:00;97260;;;16.6;95.8
23253;BME280;11795;47.054;15.408;2023-05-24T03:12:00;97260;;;16.5;96.4
23253;BME280;11795;47.054;15.408;2023-05-24T03:14:00;97260;;;16.7;95.8
23253;BME280;11795;47.054;15.408;2023-05-24T03:16:00;97260;;;16.5;96.5
23253;BME280;11795;47.054;15.408;2023-05-24T03:18:00;97260;;;16.7;96.3
23253;BME280;11795;47.054;15.408;2023-05-24T03:20:00;97260;;;16.6;96.3
23253;BME280;11795;47.054;15.408;2023-05-24T03:22:00;97260;;;16.5;96.7
23253;BME280;11795;47.054;15.408;2023-05-24T03:24:00;97260;;;16.6;95.9
23253;BME280;11795;47.054;15.408;2023-05-24T03:26:00;97260;;;16.5;96.7
23253;BME280;11795;47.054;15.408;2023-05-24T03:28:01;97260;;;16.7;96.4
23253;BME280;11795;47.054;15.408;2023-05-24T03:30:00;97260;;;16.6;96.1
23253;BME280;11795;47.054;15.408;2023-05-24T03:32:00;97260;;;16.6;96.1
23253;BME280;11795;47.054;15.408;2023-05-24T03:34:00;97270;;;16.6;95.3
23253;BME280;11795;47.054;15.408;2023-05-24T03:36:01;97270;;;16.5;96.1
23253;BME280;11795;47.054;15.408;2023-05-24T03:38:00;97270;;;16.6;96.1
23253;BME280;11795;47.054;15.408;2023-05-24T03:40:00;97270;;;16.5;96.0
23253;BME280;11795;47.054;15.408;2023-05-24T03:42:00;97270;;;16.5;96.5
23253;BME280;11795;47.054;15.408;2023-05-24T03:44:00;97270;;;16.5;96.0
23253;BME280;11795;47.054;15.408;2023-05-24T03:46:00;97270;;;16.4;96.7
23253;BME280;11795;47.054;15.408;2023-05-24T03:48:00;97270;;;16.6;96.8
23253;BME280;11795;47.054;15.408;2023-05-24T03:50:00;97280;;;16.4;96.8
23253;BME280;11795;47.054;15.408;2023-05-24T03:52:00;97280;;;16.4;97.3
23253;BME280;11795;47.054;15.408;2023-05-24T03:54:00;97270;;;16.5;96.6
23253;BME280;11795;47.054;15.408;2023-05-24T03:56:00;97280;;;16.4;97.3
23253;BME280;11795;47.054;15.408;2023-05-24T03:58:00;97270;;;16.6;97.2
23253;BME280;11795;47.054;15.408;2023-05-24T04:00:00;97280;;;16.5;97.1
23253;BME280;11795;47.054;15.408;2023-05-24T04:02:00;97280;;;16.5;97.6
23253;BME280;11795;47.054;15.408;2023-05-24T04:04:00;97280;;;16.6;96.7
23253;BME280;11795;47.054;15.408;2023-05-24T04:06:00;97280;;;16.5;97.3
23253;BME280;11795;47.054;15.408;2023-05-24T04:08:00;97280;;;16.7;97.1
23253;BME280;11795;47.054;15.408;2023-05-24T04:10:00;97280;;;16.6;97.0
23253;BME280;11795;47.054;15.408;2023-05-24T04:12:01;97280;;;16.6;97.4
23253;BME280;11795;47.054;15.408;2023-05-24T04:14:01;97290;;;16.8;96.5
23253;BME280;11795;47.054;15.408;2023-05-24T04:16:00;97290;;;16.6;97.0
23253;BME280;11795;47.054;15.408;2023-05-24T04:18:02;97290;;;16.7;97.0
23253;BME280;11795;47.054;15.408;2023-05-24T04:20:00;97290;;;16.6;96.2
23253;BME280;11795;47.054;15.408;2023-05-24T04:22:00;97300;;;16.5;97.1
23253;BME280;11795;47.054;15.408;2023-05-24T04:24:00;97300;;;16.6;96.5
23253;BME280;11795;47.054;15.408;2023-05-24T04:26:00;97300;;;16.5;97.0
23253;BME280;11795;47.054;15.408;2023-05-24T04:28:02;97310;;;16.7;96.9
23253;BME280;11795;47.054;15.408;2023-05-24T04:30:00;97300;;;16.6;96.6
23253;BME280;11795;47.054;15.408;2023-05-24T04:32:00;97300;;;16.5;97.3
23253;BME280;11795;47.054;15.408;2023-05-24T04:34:01;97310;;;16.7;96.6
23253;BME280;11795;47.054;15.408;2023-05-24T04:36:01;97300;;;16.6;97.1
23253;BME280;11795;47.054;15.408;2023-05-24T04:38:01;97310;;;16.7;97.1
23253;BME280;11795;47.054;15.408;2023-05-24T04:40:00;97310;;;16.7;96.5
23253;BME280;11795;47.054;15.408;2023-05-24T04:42:00;97310;;;16.6;96.8
23253;BME280;11795;47.054;15.408;2023-05-24T04:44:00;97310;;;16.8;96.0
23253;BME280;11795;47.054;15.408;2023-05-24T04:46:01;97310;;;16.7;96.4
23253;BME280;11795;47.054;15.408;2023-05-24T04:48:00;97310;;;16.8;96.5
23253;BME280;11795;47.054;15.408;2023-05-24T04:50:00;97310;;;16.7;96.1
23253;BME280;11795;47.054;15.408;2023-05-24T04:52:00;97310;;;16.7;96.7
23253;BME280;11795;47.054;15.408;2023-05-24T04:54:03;97310;;;16.8;95.9
23253;BME280;11795;47.054;15.408;2023-05-24T04:56:00;97320;;;16.7;96.4
23253;BME280;11795;47.054;15.408;2023-05-24T04:58:00;97320;;;16.8;96.4
23253;BME280;11795;47.054;15.408;2023-05-24T05:00:01;97320;;;16.8;95.9
23253;BME280;11795;47.054;15.408;2023-05-24T05:02:00;97330;;;16.8;96.4
23253;BME280;11795;47.054;15.408;2023-05-24T05:04:03;97330;;;16.9;95.7
23253;BME280;11795;47.054;15.408;2023-05-24T05:06:00;97330;;;16.8;96.0
23253;BME280;11795;47.054;15.408;2023-05-24T05:08:01;97320;;;16.8;96.1
23253;BME280;11795;47.054;15.408;2023-05-24T05:10:00;97320;;;16.8;95.2
23253;BME280;11795;47.054;15.408;2023-05-24T05:12:01;97320;;;16.7;95.7
23253;BME280;11795;47.054;15.408;2023-05-24T05:14:00;97320;;;16.8;94.7
23253;BME280;11795;47.054;15.408;2023-05-24T05:16:01;97320;;;16.7;95.1
23253;BME280;11795;47.054;15.408;2023-05-24T05:18:00;97320;;;16.8;95.4
23253;BME280;11795;47.054;15.408;2023-05-24T05:20:00;97320;;;16.8;94.5
23253;BME280;11795;47.054;15.408;2023-05-24T05:22:00;97320;;;16.7;95.0
23253;BME280;11795;47.054;15.408;2023-05-24T05:24:01;97320;;;16.9;94.4
23253;BME280;11795;47.054;15.408;2023-05-24T05:26:00;97320;;;16.8;94.8
23253;BME280;11795;47.054;15.408;2023-05-24T05:28:00;97320;;;16.9;94.9
23253;BME280;11795;47.054;15.408;2023-05-24T05:30:00;97330;;;16.9;94.4
23253;BME280;11795;47.054;15.408;2023-05-24T05:32:00;97320;;;16.8;95.2
23253;BME280;11795;47.054;15.408;2023-05-24T05:34:00;97330;;;16.9;94.7
23253;BME280;11795;47.054;15.408;2023-05-24T05:36:00;97330;;;16.8;95.3
23253;BME280;11795;47.054;15.408;2023-05-24T05:38:00;97330;;;16.8;95.5
23253;BME280;11795;47.054;15.408;2023-05-24T05:40:00;97330;;;16.9;94.9
23253;BME280;11795;47.054;15.408;2023-05-24T05:42:01;97330;;;16.8;95.4
23253;BME280;11795;47.054;15.408;2023-05-24T05:44:00;97330;;;17.0;94.5
23253;BME280;11795;47.054;15.408;2023-05-24T05:46:00;97330;;;16.8;94.9
23253;BME280;11795;47.054;15.408;2023-05-24T05:48:00;97340;;;16.9;94.7
23253;BME280;11795;47.054;15.408;2023-05-24T05:50:00;97340;;;16.9;93.7
23253;BME280;11795;47.054;15.408;2023-05-24T05:52:00;97340;;;16.9;94.0
23253;BME280;11795;47.054;15.408;2023-05-24T05:54:00;97340;;;17.0;93.6
23253;BME280;11795;47.054;15.408;2023-05-24T05:56:00;97340;;;16.8;94.2
23253;BME280;11795;47.054;15.408;2023-05-24T05:58:00;97340;;;16.8;95.2
23253;BME280;11795;47.054;15.408;2023-05-24T06:00:00;97340;;;16.8;94.9
23253;BME280;11795;47.054;15.408;2023-05-24T06:02:00;97340;;;16.8;94.9
23253;BME280;11795;47.054;15.408;2023-05-24T06:04:00;97340;;;17.0;94.4
23253;BME280;11795;47.054;15.408;2023-05-24T06:06:00;97340;;;16.8;94.5
23253;BME280;11795;47.054;15.408;2023-05-24T06:08:00;97350;;;16.8;95.0
23253;BME280;11795;47.054;15.408;2023-05-24T06:10:00;97350;;;16.9;94.7
23253;BME280;11795;47.054;15.408;2023-05-24T06:12:00;97350;;;16.8;95.4
23253;BME280;11795;47.054;15.408;2023-05-24T06:14:01;97350;;;17.0;94.7
23253;BME280;11795;47.054;15.408;2023-05-24T06:16:00;97350;;;16.9;94.9
23253;BME280;11795;47.054;15.408;2023-05-24T06:18:01;97350;;;16.8;95.5
23253;BME280;11795;47.054;15.408;2023-05-24T06:20:00;97360;;;17.0;94.9
23253;BME280;11795;47.054;15.408;2023-05-24T06:22:00;97360;;;16.9;95.3
23253;BME280;11795;47.054;15.408;2023-05-24T06:24:01;97360;;;17.1;94.8
23253;BME280;11795;47.054;15.408;2023-05-24T06:26:00;97360;;;17.0;94.1
23253;BME280;11795;47.054;15.408;2023-05-24T06:28:00;97360;;;17.0;94.1
23253;BME280;11795;47.054;15.408;2023-05-24T06:30:00;97360;;;17.0;93.5
23253;BME280;11795;47.054;15.408;2023-05-24T06:32:00;97370;;;16.9;94.2
23253;BME280;11795;47.054;15.408;2023-05-24T06:34:00;97370;;;17.1;93.9
23253;BME280;11795;47.054;15.408;2023-05-24T06:36:00;97360;;;17.0;94.0
23253;BME280;11795;47.054;15.408;2023-05-24T06:38:00;97370;;;16.9;94.3
23253;BME280;11795;47.054;15.408;2023-05-24T06:40:00;97360;;;17.0;93.5
23253;BME280;11795;47.054;15.408;2023-05-24T06:42:01;97370;;;16.9;94.0
23253;BME280;11795;47.054;15.408;2023-05-24T06:44:00;97370;;;17.2;93.5
23253;BME280;11795;47.054;15.408;2023-05-24T06:46:00;97380;;;17.0;93.7
23253;BME280;11795;47.054;15.408;2023-05-24T06:48:00;97380;;;17.0;94.0
23253;BME280;11795;47.054;15.408;2023-05-24T06:50:01;97380;;;17.1;93.4
23253;BME280;11795;47.054;15.408;2023-05-24T06:52:00;97380;;;17.0;94.0
23253;BME280;11795;47.054;15.408;2023-05-24T06:54:00;97380;;;17.2;93.2
23253;BME280;11795;47.054;15.408;2023-05-24T06:56:00;97380;;;17.1;92.7
23253;BME280;11795;47.054;15.408;2023-05-24T06:58:00;97380;;;17.1;93.0
23253;BME280;11795;47.054;15.408;2023-05-24T07:00:00;97390;;;17.2;92.3
23253;BME280;11795;47.054;15.408;2023-05-24T07:02:00;97390;;;17.1;93.1
23253;BME280;11795;47.054;15.408;2023-05-24T07:04:00;97390;;;17.2;92.8
23253;BME280;11795;47.054;15.408;2023-05-24T07:06:00;97390;;;17.1;92.9
23253;BME280;11795;47.054;15.408;2023-05-24T07:08:01;97390;;;17.0;93.4
23253;BME280;11795;47.054;15.408;2023-05-24T07:10:00;97390;;;17.1;92.8
23253;BME280;11795;47.054;15.408;2023-05-24T07:12:01;97390;;;17.1;93.5
23253;BME280;11795;47.054;15.408;2023-05-24T07:14:00;97400;;;17.2;92.9
23253;BME280;11795;47.054;15.408;2023-05-24T07:16:00;97390;;;17.1;93.0
23253;BME280;11795;47.054;15.408;2023-05-24T07:18:00;97390;;;17.1;93.4
23253;BME280;11795;47.054;15.408;2023-05-24T07:20:00;97390;;;17.0;92.2
23253;BME280;11795;47.054;15.408;2023-05-24T07:22:00;97390;;;17.0;92.8
23253;BME280;11795;47.054;15.408;2023-05-24T07:24:01;97390;;;17.2;92.6
23253;BME280;11795;47.054;15.408;2023-05-24T07:26:00;97400;;;17.1;92.9
23253;BME280;11795;47.054;15.408;2023-05-24T07:28:00;97400;;;17.0;93.1
23253;BME280;11795;47.054;15.408;2023-05-24T07:30:00;97400;;;17.1;92.3
23253;BME280;11795;47.054;15.408;2023-05-24T07:32:01;97400;;;17.0;92.1
23253;BME280;11795;47.054;15.408;2023-05-24T07:34:00;97400;;;16.9;92.0
23253;BME280;11795;47.054;15.408;2023-05-24T07:36:02;97400;;;16.8;92.1
23253;BME280;11795;47.054;15.408;2023-05-24T07:38:00;97410;;;16.8;92.5
23253;BME280;11795;47.054;15.408;2023-05-24T07:40:00;97410;;;16.9;91.8
23253;BME280;11795;47.054;15.408;2023-05-24T07:42:00;97410;;;17.0;91.6
23253;BME280;11795;47.054;15.408;2023-05-24T07:44:00;97410;;;17.1;90.9
23253;BME280;11795;47.054;15.408;2023-05-24T07:46:00;97410;;;17.0;91.2
23253;BME280;11795;47.054;15.408;2023-05-24T07:48:00;97410;;;17.0;90.9
23253;BME280;11795;47.054;15.408;2023-05-24T07:50:00;97410;;;16.9;91.8
23253;BME280;11795;47.054;15.408;2023-05-24T07:52:00;97420;;;16.8;90.1
23253;BME280;11795;47.054;15.408;2023-05-24T07:54:00;97410;;;16.6;91.3
23253;BME280;11795;47.054;15.408;2023-05-24T07:56:00;97410;;;16.5;92.2
23253;BME280;11795;47.054;15.408;2023-05-24T07:58:00;97410;;;16.5;92.9
23253;BME280;11795;47.054;15.408;2023-05-24T08:00:06;97420;;;16.5;92.4
23253;BME280;11795;47.054;15.408;2023-05-24T08:02:04;97420;;;16.4;93.1
23253;BME280;11795;47.054;15.408;2023-05-24T08:04:00;97420;;;16.6;93.7
23253;BME280;11795;47.054;15.408;2023-05-24T08:06:00;97420;;;16.5;94.1
23253;BME280;11795;47.054;15.408;2023-05-24T08:08:00;97420;;;16.4;94.7
23253;BME280;11795;47.054;15.408;2023-05-24T08:10:00;97420;;;16.5;93.3
23253;BME280;11795;47.054;15.408;2023-05-24T08:12:00;97420;;;16.5;93.8
23253;BME280;11795;47.054;15.408;2023-05-24T08:14:00;97420;;;16.5;94.0
23253;BME280;11795;47.054;15.408;2023-05-24T08:16:00;97430;;;16.4;94.2
23253;BME280;11795;47.054;15.408;2023-05-24T08:18:00;97420;;;16.5;94.2
23253;BME280;11795;47.054;15.408;2023-05-24T08:20:01;97420;;;16.6;93.7
23253;BME280;11795;47.054;15.408;2023-05-24T08:22:03;97430;;;16.5;94.4
23253;BME280;11795;47.054;15.408;2023-05-24T08:24:00;97430;;;16.6;94.8
23253;BME280;11795;47.054;15.408;2023-05-24T08:26:00;97430;;;16.5;95.0
23253;BME280;11795;47.054;15.408;2023-05-24T08:28:01;97430;;;16.5;95.4
23253;BME280;11795;47.054;15.408;2023-05-24T08:30:00;97430;;;16.6;94.8
23253;BME280;11795;47.054;15.408;2023-05-24T08:32:00;97430;;;16.5;95.4
23253;BME280;11795;47.054;15.408;2023-05-24T08:34:01;97430;;;16.6;94.6
23253;BME280;11795;47.054;15.408;2023-05-24T08:36:00;97440;;;16.6;94.8
23253;BME280;11795;47.054;15.408;2023-05-24T08:38:00;97430;;;16.5;95.1
23253;BME280;11795;47.054;15.408;2023-05-24T08:40:00;97440;;;16.7;94.4
23253;BME280;11795;47.054;15.408;2023-05-24T08:42:01;97440;;;16.6;94.1
23253;BME280;11795;47.054;15.408;2023-05-24T08:44:01;97440;;;16.7;93.9
23253;BME280;11795;47.054;15.408;2023-05-24T08:46:01;97440;;;16.5;93.7
23253;BME280;11795;47.054;15.408;2023-05-24T08:48:00;97450;;;16.5;94.2
23253;BME280;11795;47.054;15.408;2023-05-24T08:50:01;97450;;;16.7;93.4
23253;BME280;11795;47.054;15.408;2023-05-24T08:52:01;97450;;;16.5;93.9
23253;BME280;11795;47.054;15.408;2023-05-24T08:54:01;97450;;;16.7;94.1
23253;BME280;11795;47.054;15.408;2023-05-24T08:56:01;97460;;;16.6;93.8
23253;BME280;11795;47.054;15.408;2023-05-24T08:58:00;97460;;;16.5;94.3
23253;BME280;11795;47.054;15.408;2023-05-24T09:00:00;97460;;;16.6;93.8
23253;BME280;11795;47.054;15.408;2023-05-24T09:02:01;97460;;;16.5;94.4
23253;BME280;11795;47.054;15.408;2023-05-24T09:04:01;97470;;;16.7;94.3
23253;BME280;11795;47.054;15.408;2023-05-24T09:06:01;97470;;;16.6;93.7
23253;BME280;11795;47.054;15.408;2023-05-24T09:08:01;97470;;;16.5;94.4
23253;BME280;11795;47.054;15.408;2023-05-24T09:10:04;97470;;;16.6;94.2
23253;BME280;11795;47.054;15.408;2023-05-24T09:12:03;97480;;;16.5;94.8
23253;BME280;11795;47.054;15.408;2023-05-24T09:14:00;97470;;;16.7;94.8
23253;BME280;11795;47.054;15.408;2023-05-24T09:16:01;97470;;;16.6;94.6
23253;BME280;11795;47.054;15.408;2023-05-24T09:18:00;97470;;;16.5;95.3
23253;BME280;11795;47.054;15.408;2023-05-24T09:20:00;97480;;;16.7;94.5
23253;BME280;11795;47.054;15.408;2023-05-24T09:22:01;97470;;;16.6;94.8
23253;BME280;11795;47.054;15.408;2023-05-24T09:24:00;97470;;;16.7;94.9
23253;BME280;11795;47.054;15.408;2023-05-24T09:26:06;97470;;;16.5;94.3
23253;BME280;11795;47.054;15.408;2023-05-24T09:28:05;97470;;;16.5;94.9
23253;BME280;11795;47.054;15.408;2023-05-24T09:30:01;97480;;;16.6;93.4
23253;BME280;11795;47.054;15.408;2023-05-24T09:32:01;97480;;;16.4;93.9
23253;BME280;11795;47.054;15.408;2023-05-24T09:34:01;97480;;;16.5;94.4
23253;BME280;11795;47.054;15.408;2023-05-24T09:36:01;97480;;;16.5;94.2
23253;BME280;11795;47.054;15.408;2023-05-24T09:38:00;97480;;;16.4;94.5
23253;BME280;11795;47.054;15.408;2023-05-24T09:40:00;97480;;;16.5;93.7
23253;BME280;11795;47.054;15.408;2023-05-24T09:42:01;97490;;;16.5;94.1
23253;BME280;11795;47.054;15.408;2023-05-24T09:44:00;97480;;;16.6;94.0
23253;BME280;11795;47.054;15.408;2023-05-24T09:46:01;97480;;;16.6;93.4
23253;BME280;11795;47.054;15.408;2023-05-24T09:48:02;97480;;;16.5;93.8
23253;BME280;11795;47.054;15.408;2023-05-24T09:50:02;97480;;;16.7;93.2
23253;BME280;11795;47.054;15.408;2023-05-24T09:52:00;97480;;;16.5;93.7
23253;BME280;11795;47.054;15.408;2023-05-24T09:54:00;97490;;;16.6;93.8
23253;BME280;11795;47.054;15.408;2023-05-24T09:56:02;97480;;;16.6;93.2
23253;BME280;11795;47.054;15.408;2023-05-24T09:58:02;97480;;;16.5;93.4
23253;BME280;11795;47.054;15.408;2023-05-24T10:00:04;97480;;;16.7;92.6
23253;BME280;11795;47.054;15.408;2023-05-24T10:02:06;97480;;;16.6;92.7
23253;BME280;11795;47.054;15.408;2023-05-24T10:04:02;97480;;;16.7;92.5
23253;BME280;11795;47.054;15.408;2023-05-24T10:06:02;97480;;;16.6;92.0
23253;BME280;11795;47.054;15.408;2023-05-24T10:08:01;97480;;;16.5;92.6
23253;BME280;11795;47.054;15.408;2023-05-24T10:10:01;97480;;;16.7;92.2
23253;BME280;11795;47.054;15.408;2023-05-24T10:12:02;97480;;;16.6;92.9
23253;BME280;11795;47.054;15.408;2023-05-24T10:14:02;97480;;;16.7;93.1
23253;BME280;11795;47.054;15.408;2023-05-24T10:16:00;97480;;;16.7;92.5
23253;BME280;11795;47.054;15.408;2023-05-24T10:18:01;97480;;;16.7;92.9
23253;BME280;11795;47.054;15.408;2023-05-24T10:20:01;97480;;;16.9;92.0
23253;BME280;11795;47.054;15.408;2023-05-24T10:22:05;97480;;;16.7;91.9
23253;BME280;11795;47.054;15.408;2023-05-24T10:24:01;97480;;;16.8;92.4
23253;BME280;11795;47.054;15.408;2023-05-24T10:26:03;97480;;;16.9;91.8
23253;BME280;11795;47.054;15.408;2023-05-24T10:28:03;97490;;;16.8;92.4
23253;BME280;11795;47.054;15.408;2023-05-24T10:30:07;97490;;;17.0;92.1
23253;BME280;11795;47.054;15.408;2023-05-24T10:32:00;97490;;;16.9;92.8
23253;BME280;11795;47.054;15.408;2023-05-24T10:34:02;97490;;;16.9;93.2
23253;BME280;11795;47.054;15.408;2023-05-24T10:36:02;97490;;;17.0;92.8
23253;BME280;11795;47.054;15.408;2023-05-24T10:38:04;97490;;;17.0;93.3
23253;BME280;11795;47.054;15.408;2023-05-24T10:40:00;97490;;;17.1;92.3
23253;BME280;11795;47.054;15.408;2023-05-24T10:42:01;97490;;;17.0;92.8
23253;BME280;11795;47.054;15.408;2023-05-24T10:44:01;97490;;;17.1;93.2
23253;BME280;11795;47.054;15.408;2023-05-24T10:46:01;97490;;;17.2;92.1
23253;BME280;11795;47.054;15.408;2023-05-24T10:48:07;97490;;;17.1;91.8
23253;BME280;11795;47.054;15.408;2023-05-24T10:50:15;97490;;;17.3;91.1
23253;BME280;11795;47.054;15.408;2023-05-24T10:52:05;97490;;;17.2;91.6
23253;BME280;11795;47.054;15.408;2023-05-24T10:54:11;97490;;;17.3;91.7
23253;BME280;11795;47.054;15.408;2023-05-24T10:56:01;97490;;;17.4;91.1
23253;BME280;11795;47.054;15.408;2023-05-24T10:58:04;97500;;;17.4;91.7
23253;BME280;11795;47.054;15.408;2023-05-24T11:02:01;97490;;;17.5;90.1
23253;BME280;11795;47.054;15.408;2023-05-24T11:04:08;97490;;;17.5;90.4
23253;BME280;11795;47.054;15.408;2023-05-24T11:06:00;97490;;;17.6;89.1
23253;BME280;11795;47.054;15.408;2023-05-24T11:08:00;97490;;;17.5;89.3
23253;BME280;11795;47.054;15.408;2023-05-24T11:10:10;97490;;;17.7;88.2
23253;BME280;11795;47.054;15.408;2023-05-24T11:12:02;97490;;;17.5;88.1